createdAt,value
2022-12-08T00:00:10.263Z,21.00
2022-12-08T00:01:10.196Z,18.10
2022-12-08T00:02:10.235Z,18.60
2022-12-08T00:03:10.234Z,16.20
2022-12-08T00:04:10.054Z,18.70
2022-12-08T00:05:10.004Z,18.00
2022-12-08T00:06:09.979Z,17.70
2022-12-08T00:07:09.891Z,17.90
2022-12-08T00:08:09.880Z,16.20
2022-12-08T00:09:09.862Z,16.40
2022-12-08T00:10:39.648Z,19.90
2022-12-08T00:11:10.715Z,21.20
2022-12-08T00:12:09.672Z,20.60
2022-12-08T00:13:09.614Z,22.70
2022-12-08T00:14:09.581Z,22.80
2022-12-08T00:15:09.504Z,27.50
2022-12-08T00:16:09.472Z,19.90
2022-12-08T00:17:09.404Z,17.70
2022-12-08T00:18:09.359Z,19.70
2022-12-08T00:19:09.351Z,17.90
2022-12-08T00:20:09.264Z,18.40
2022-12-08T00:21:09.208Z,18.30
2022-12-08T00:22:09.164Z,17.40
2022-12-08T00:23:09.125Z,19.60
2022-12-08T00:24:09.079Z,19.40
2022-12-08T00:25:09.056Z,21.00
2022-12-08T00:26:08.966Z,16.40
2022-12-08T00:27:08.936Z,15.80
2022-12-08T00:28:08.877Z,17.40
2022-12-08T00:29:11.970Z,15.80
2022-12-08T00:30:09.799Z,17.30
2022-12-08T00:31:08.748Z,16.60
2022-12-08T00:32:08.709Z,17.00
2022-12-08T00:33:08.669Z,16.00
2022-12-08T00:34:08.607Z,17.10
2022-12-08T00:35:08.579Z,16.10
2022-12-08T00:36:08.509Z,17.00
2022-12-08T00:37:08.475Z,20.50
2022-12-08T00:38:08.427Z,15.10
2022-12-08T00:39:08.370Z,19.00
2022-12-08T00:40:08.358Z,13.30
2022-12-08T00:41:08.273Z,16.60
2022-12-08T00:42:08.220Z,17.00
2022-12-08T00:43:08.168Z,19.50
2022-12-08T00:44:08.126Z,15.00
2022-12-08T00:45:08.071Z,15.90
2022-12-08T00:46:08.114Z,17.10
2022-12-08T00:47:07.981Z,21.20
2022-12-08T00:48:07.930Z,20.10
2022-12-08T00:49:07.886Z,25.70
2022-12-08T00:50:07.851Z,22.80
2022-12-08T00:51:07.802Z,22.20
2022-12-08T00:52:07.771Z,18.10
2022-12-08T00:53:07.685Z,19.90
2022-12-08T00:54:07.642Z,18.80
2022-12-08T00:55:07.601Z,20.00
2022-12-08T00:56:07.543Z,22.20
2022-12-08T00:57:07.483Z,18.20
2022-12-08T00:58:07.458Z,22.90
2022-12-08T00:59:07.455Z,22.90
2022-12-08T01:00:07.429Z,22.50
2022-12-08T01:01:07.334Z,24.20
2022-12-08T01:02:07.246Z,22.60
2022-12-08T01:03:07.232Z,24.60
2022-12-08T01:04:07.144Z,25.20
2022-12-08T01:05:07.093Z,25.30
2022-12-08T01:06:07.045Z,21.30
2022-12-08T01:07:07.007Z,22.30
2022-12-08T01:08:06.989Z,22.80
2022-12-08T01:09:06.946Z,18.20
2022-12-08T01:10:07.129Z,19.20
2022-12-08T01:11:06.835Z,21.50
2022-12-08T01:12:06.783Z,24.10
2022-12-08T01:13:06.764Z,26.40
2022-12-08T01:14:06.729Z,26.10
2022-12-08T01:15:06.653Z,30.30
2022-12-08T01:16:06.599Z,29.10
2022-12-08T01:17:06.682Z,28.60
2022-12-08T01:18:06.501Z,31.00
2022-12-08T01:19:06.496Z,30.30
2022-12-08T01:20:06.648Z,30.20
2022-12-08T01:21:06.397Z,26.50
2022-12-08T01:22:06.336Z,27.00
2022-12-08T01:23:06.297Z,27.60
2022-12-08T01:24:06.256Z,27.50
2022-12-08T01:25:06.236Z,29.70
2022-12-08T01:26:06.182Z,29.40
2022-12-08T01:27:06.127Z,27.40
2022-12-08T01:28:06.080Z,25.10
2022-12-08T01:29:06.047Z,28.40
2022-12-08T01:30:06.381Z,26.60
2022-12-08T01:31:06.084Z,25.80
2022-12-08T01:32:05.898Z,29.30
2022-12-08T01:33:05.873Z,24.80
2022-12-08T01:34:05.837Z,22.20
2022-12-08T01:35:05.805Z,21.70
2022-12-08T01:36:05.764Z,29.20
2022-12-08T01:37:05.683Z,33.40
2022-12-08T01:38:05.674Z,27.50
2022-12-08T01:39:05.612Z,30.40
2022-12-08T01:40:05.820Z,31.00
2022-12-08T01:41:05.512Z,28.70
2022-12-08T01:42:05.477Z,29.10
2022-12-08T01:43:05.444Z,30.30
2022-12-08T01:44:05.384Z,31.30
2022-12-08T01:45:05.370Z,27.30
2022-12-08T01:46:05.351Z,28.70
2022-12-08T01:47:05.281Z,27.80
2022-12-08T01:48:05.348Z,26.20
2022-12-08T01:49:05.203Z,30.70
2022-12-08T01:50:05.362Z,32.90
2022-12-08T01:51:05.084Z,31.10
2022-12-08T01:52:05.058Z,28.90
2022-12-08T01:53:04.992Z,28.20
2022-12-08T01:54:04.944Z,31.10
2022-12-08T01:55:04.901Z,28.10
2022-12-08T01:56:04.843Z,28.90
2022-12-08T01:57:04.798Z,27.30
2022-12-08T01:58:04.763Z,28.50
2022-12-08T01:59:04.718Z,29.30
2022-12-08T02:00:05.077Z,29.20
2022-12-08T02:01:04.755Z,28.30
2022-12-08T02:02:04.651Z,31.50
2022-12-08T02:03:04.703Z,36.00
2022-12-08T02:04:04.517Z,34.40
2022-12-08T02:05:04.520Z,36.00
2022-12-08T02:06:04.453Z,40.30
2022-12-08T02:07:07.997Z,41.30
2022-12-08T02:08:04.622Z,38.00
2022-12-08T02:09:04.335Z,38.60
2022-12-08T02:10:04.522Z,41.60
2022-12-08T02:11:04.261Z,39.40
2022-12-08T02:12:04.216Z,36.60
2022-12-08T02:13:04.196Z,34.80
2022-12-08T02:14:04.141Z,31.40
2022-12-08T02:15:05.459Z,30.70
2022-12-08T02:16:04.138Z,34.30
2022-12-08T02:17:04.013Z,30.10
2022-12-08T02:18:03.972Z,31.70
2022-12-08T02:19:29.625Z,27.90
2022-12-08T02:20:05.066Z,31.20
2022-12-08T02:21:03.889Z,29.00
2022-12-08T02:22:03.827Z,28.50
2022-12-08T02:23:03.773Z,29.90
2022-12-08T02:24:03.760Z,30.60
2022-12-08T02:25:03.694Z,27.40
2022-12-08T02:26:03.677Z,29.10
2022-12-08T02:27:03.625Z,29.40
2022-12-08T02:28:03.565Z,28.90
2022-12-08T02:29:03.538Z,30.90
2022-12-08T02:30:03.717Z,26.80
2022-12-08T02:31:03.497Z,28.10
2022-12-08T02:32:03.396Z,28.80
2022-12-08T02:33:03.355Z,34.20
2022-12-08T02:34:03.361Z,30.70
2022-12-08T02:35:03.314Z,30.50
2022-12-08T02:36:03.256Z,25.70
2022-12-08T02:37:03.206Z,28.00
2022-12-08T02:38:03.172Z,25.70
2022-12-08T02:39:03.163Z,27.00
2022-12-08T02:40:03.652Z,29.00
2022-12-08T02:41:03.059Z,27.10
2022-12-08T02:42:03.001Z,28.40
2022-12-08T02:43:02.978Z,29.70
2022-12-08T02:44:02.943Z,27.30
2022-12-08T02:45:02.920Z,29.20
2022-12-08T02:46:02.969Z,33.60
2022-12-08T02:47:09.841Z,28.30
2022-12-08T02:48:02.788Z,29.20
2022-12-08T02:49:02.738Z,28.00
2022-12-08T02:50:03.024Z,30.90
2022-12-08T02:51:02.710Z,28.90
2022-12-08T02:52:02.658Z,29.30
2022-12-08T02:53:02.624Z,32.20
2022-12-08T02:54:02.581Z,32.60
2022-12-08T02:55:02.539Z,31.40
2022-12-08T02:56:02.511Z,33.10
2022-12-08T02:57:02.460Z,33.70
2022-12-08T02:58:02.401Z,35.70
2022-12-08T02:59:02.362Z,37.30
2022-12-08T03:00:02.987Z,37.80
2022-12-08T03:01:02.325Z,35.40
2022-12-08T03:02:02.355Z,36.50
2022-12-08T03:03:02.257Z,36.60
2022-12-08T03:04:02.168Z,38.40
2022-12-08T03:05:02.123Z,38.80
2022-12-08T03:06:02.112Z,34.90
2022-12-08T03:07:02.046Z,36.40
2022-12-08T03:08:02.115Z,39.00
2022-12-08T03:09:01.997Z,33.70
2022-12-08T03:10:02.502Z,31.50
2022-12-08T03:11:01.893Z,35.80
2022-12-08T03:12:01.891Z,36.50
2022-12-08T03:13:01.830Z,34.40
2022-12-08T03:14:01.792Z,39.00
2022-12-08T03:15:01.760Z,36.70
2022-12-08T03:16:01.753Z,40.30
2022-12-08T03:17:01.686Z,33.40
2022-12-08T03:18:01.632Z,35.20
2022-12-08T03:19:01.581Z,34.20
2022-12-08T03:20:01.949Z,36.50
2022-12-08T03:21:01.512Z,35.90
2022-12-08T03:22:01.483Z,35.70
2022-12-08T03:23:01.422Z,35.50
2022-12-08T03:24:01.392Z,37.00
2022-12-08T03:25:01.354Z,41.50
2022-12-08T03:26:01.313Z,36.90
2022-12-08T03:27:01.292Z,34.60
2022-12-08T03:28:01.226Z,34.70
2022-12-08T03:29:01.176Z,36.20
2022-12-08T03:30:01.164Z,34.70
2022-12-08T03:31:01.180Z,33.80
2022-12-08T03:32:01.065Z,37.20
2022-12-08T03:33:01.032Z,33.70
2022-12-08T03:34:00.986Z,35.20
2022-12-08T03:35:00.937Z,34.60
2022-12-08T03:36:00.907Z,38.80
2022-12-08T03:37:00.845Z,40.60
2022-12-08T03:38:00.817Z,36.80
2022-12-08T03:39:00.766Z,41.70
2022-12-08T03:40:00.734Z,40.00
2022-12-08T03:41:00.667Z,40.30
2022-12-08T03:42:00.640Z,41.80
2022-12-08T03:43:00.585Z,42.30
2022-12-08T03:44:00.559Z,42.50
2022-12-08T03:45:00.505Z,40.30
2022-12-08T03:46:00.515Z,40.30
2022-12-08T03:47:00.418Z,39.80
2022-12-08T03:48:00.371Z,36.60
2022-12-08T03:49:00.345Z,37.40
2022-12-08T03:50:00.291Z,43.60
2022-12-08T03:51:00.229Z,38.20
2022-12-08T03:52:00.219Z,41.20
2022-12-08T03:53:00.166Z,40.60
2022-12-08T03:54:00.151Z,38.70
2022-12-08T03:55:00.091Z,38.10
2022-12-08T03:56:00.044Z,39.00
2022-12-08T03:57:00.007Z,38.90
2022-12-08T03:57:59.960Z,35.90
2022-12-08T03:58:59.918Z,39.60
2022-12-08T03:59:59.897Z,40.70
2022-12-08T04:00:59.851Z,40.40
2022-12-08T04:01:59.870Z,44.10
2022-12-08T04:02:59.793Z,40.70
2022-12-08T04:03:59.731Z,38.80
2022-12-08T04:04:59.692Z,36.80
2022-12-08T04:05:59.640Z,36.80
2022-12-08T04:06:59.580Z,42.50
2022-12-08T04:07:59.570Z,41.50
2022-12-08T04:08:59.493Z,39.40
2022-12-08T04:09:59.459Z,42.80
2022-12-08T04:10:59.434Z,42.80
2022-12-08T04:11:59.372Z,44.90
2022-12-08T04:12:59.323Z,40.40
2022-12-08T04:13:59.285Z,44.00
2022-12-08T04:14:59.255Z,43.20
2022-12-08T04:15:59.252Z,43.70
2022-12-08T04:16:59.163Z,44.50
2022-12-08T04:17:59.136Z,43.70
2022-12-08T04:18:59.082Z,47.80
2022-12-08T04:19:59.034Z,48.10
2022-12-08T04:20:59.001Z,45.30
2022-12-08T04:21:58.944Z,50.40
2022-12-08T04:22:58.913Z,49.40
2022-12-08T04:24:01.219Z,49.80
2022-12-08T04:24:58.835Z,44.70
2022-12-08T04:25:58.785Z,52.40
2022-12-08T04:26:58.742Z,49.90
2022-12-08T04:27:58.713Z,50.00
2022-12-08T04:28:58.645Z,49.20
2022-12-08T04:29:58.626Z,54.70
2022-12-08T04:30:58.655Z,49.10
2022-12-08T04:31:58.610Z,51.10
2022-12-08T04:32:58.507Z,48.60
2022-12-08T04:33:58.486Z,54.70
2022-12-08T04:34:58.425Z,61.70
2022-12-08T04:35:58.396Z,53.70
2022-12-08T04:36:58.374Z,56.50
2022-12-08T04:37:58.326Z,53.70
2022-12-08T04:38:58.283Z,52.50
2022-12-08T04:39:58.244Z,50.20
2022-12-08T04:40:58.227Z,54.60
2022-12-08T04:41:58.208Z,56.40
2022-12-08T04:42:58.144Z,52.80
2022-12-08T04:43:58.108Z,61.80
2022-12-08T04:44:58.085Z,55.80
2022-12-08T04:45:58.045Z,54.50
2022-12-08T04:46:58.079Z,50.80
2022-12-08T04:47:57.989Z,55.50
2022-12-08T04:48:57.928Z,60.50
2022-12-08T04:49:57.909Z,57.20
2022-12-08T04:50:57.867Z,55.60
2022-12-08T04:51:57.839Z,63.80
2022-12-08T04:52:57.799Z,61.80
2022-12-08T04:53:57.758Z,57.60
2022-12-08T04:54:57.721Z,63.60
2022-12-08T04:55:57.689Z,62.30
2022-12-08T04:56:57.662Z,62.70
2022-12-08T04:57:57.653Z,54.70
2022-12-08T04:58:57.577Z,63.60
2022-12-08T04:59:57.532Z,54.20
2022-12-08T05:00:57.511Z,59.40
2022-12-08T05:01:57.544Z,58.00
2022-12-08T05:02:57.477Z,54.30
2022-12-08T05:03:57.390Z,57.40
2022-12-08T05:04:57.323Z,56.80
2022-12-08T05:05:57.282Z,55.00
2022-12-08T05:06:57.239Z,55.50
2022-12-08T05:07:57.236Z,55.00
2022-12-08T05:08:57.182Z,55.10
2022-12-08T05:09:57.132Z,51.70
2022-12-08T05:10:57.081Z,53.60
2022-12-08T05:11:57.050Z,54.40
2022-12-08T05:12:57.000Z,59.10
2022-12-08T05:13:56.960Z,55.70
2022-12-08T05:14:56.922Z,56.60
2022-12-08T05:15:56.894Z,58.00
2022-12-08T05:16:56.851Z,67.20
2022-12-08T05:17:56.793Z,67.30
2022-12-08T05:18:56.743Z,66.00
2022-12-08T05:19:56.707Z,61.60
2022-12-08T05:20:56.654Z,67.40
2022-12-08T05:21:56.605Z,65.00
2022-12-08T05:22:56.551Z,61.40
2022-12-08T05:23:56.514Z,64.80
2022-12-08T05:24:56.473Z,66.40
2022-12-08T05:25:56.422Z,68.80
2022-12-08T05:26:56.366Z,68.10
2022-12-08T05:28:17.698Z,65.00
2022-12-08T05:28:57.284Z,71.40
2022-12-08T05:29:56.255Z,66.20
2022-12-08T05:30:56.195Z,63.00
2022-12-08T05:31:56.218Z,62.70
2022-12-08T05:32:56.124Z,61.60
2022-12-08T05:34:00.974Z,61.50
2022-12-08T05:34:57.044Z,57.70
2022-12-08T05:35:55.986Z,57.90
2022-12-08T05:36:55.926Z,55.70
2022-12-08T05:37:55.887Z,56.90
2022-12-08T05:38:55.848Z,51.20
2022-12-08T05:39:55.816Z,51.90
2022-12-08T05:40:55.776Z,57.40
2022-12-08T05:41:55.737Z,51.10
2022-12-08T05:42:55.704Z,53.20
2022-12-08T05:43:55.667Z,51.30
2022-12-08T05:44:55.617Z,58.90
2022-12-08T05:45:55.649Z,56.60
2022-12-08T05:46:55.547Z,60.10
2022-12-08T05:47:55.516Z,54.80
2022-12-08T05:48:55.470Z,61.10
2022-12-08T05:49:55.439Z,61.00
2022-12-08T05:50:55.382Z,64.20
2022-12-08T05:51:55.339Z,65.20
2022-12-08T05:52:55.300Z,67.30
2022-12-08T05:53:55.258Z,64.50
2022-12-08T05:54:55.197Z,76.70
2022-12-08T05:55:55.170Z,74.60
2022-12-08T05:56:55.116Z,77.20
2022-12-08T05:57:55.061Z,81.70
2022-12-08T05:58:55.029Z,85.20
2022-12-08T05:59:54.981Z,83.00
2022-12-08T06:00:54.940Z,96.90
2022-12-08T06:01:54.923Z,92.20
2022-12-08T06:02:54.962Z,88.30
2022-12-08T06:03:54.802Z,83.50
2022-12-08T06:04:54.761Z,94.30
2022-12-08T06:05:54.761Z,98.90
2022-12-08T06:06:54.691Z,86.30
2022-12-08T06:07:54.698Z,81.30
2022-12-08T06:08:54.617Z,80.70
2022-12-08T06:09:54.579Z,76.30
2022-12-08T06:10:54.549Z,79.30
2022-12-08T06:11:54.522Z,69.40
2022-12-08T06:12:54.480Z,68.50
2022-12-08T06:13:54.433Z,66.50
2022-12-08T06:14:54.393Z,63.50
2022-12-08T06:15:54.342Z,71.90
2022-12-08T06:16:54.460Z,68.10
2022-12-08T06:17:54.281Z,74.50
2022-12-08T06:18:54.211Z,75.30
2022-12-08T06:19:54.193Z,79.20
2022-12-08T06:20:54.145Z,79.60
2022-12-08T06:21:54.124Z,74.50
2022-12-08T06:22:54.064Z,75.30
2022-12-08T06:23:54.046Z,78.70
2022-12-08T06:24:53.995Z,71.00
2022-12-08T06:25:53.966Z,76.40
2022-12-08T06:26:53.926Z,74.10
2022-12-08T06:27:53.905Z,80.80
2022-12-08T06:28:53.866Z,86.10
2022-12-08T06:29:53.823Z,94.20
2022-12-08T06:30:53.794Z,97.80
2022-12-08T06:31:53.816Z,103.80
2022-12-08T06:32:53.723Z,87.80
2022-12-08T06:33:53.679Z,99.20
2022-12-08T06:34:53.646Z,103.40
2022-12-08T06:35:53.617Z,74.80
2022-12-08T06:36:53.545Z,77.20
2022-12-08T06:37:53.531Z,85.70
2022-12-08T06:38:53.496Z,86.50
2022-12-08T06:39:53.436Z,88.00
2022-12-08T06:40:53.396Z,100.90
2022-12-08T06:41:53.369Z,99.30
2022-12-08T06:42:53.317Z,96.00
2022-12-08T06:43:53.299Z,94.50
2022-12-08T06:44:53.247Z,88.00
2022-12-08T06:45:53.253Z,93.30
2022-12-08T06:46:53.160Z,93.40
2022-12-08T06:47:53.119Z,89.50
2022-12-08T06:48:53.087Z,79.40
2022-12-08T06:49:53.078Z,86.60
2022-12-08T06:50:53.009Z,74.10
2022-12-08T06:51:52.999Z,72.00
2022-12-08T06:53:02.689Z,72.40
2022-12-08T06:53:53.908Z,75.30
2022-12-08T06:54:52.912Z,76.00
2022-12-08T06:55:59.792Z,66.40
2022-12-08T06:56:53.817Z,69.80
2022-12-08T06:57:54.072Z,75.70
2022-12-08T06:58:53.217Z,72.60
2022-12-08T06:59:52.719Z,72.90
2022-12-08T07:00:52.788Z,74.20
2022-12-08T07:01:52.698Z,76.00
2022-12-08T07:02:52.644Z,74.70
2022-12-08T07:03:52.562Z,63.40
2022-12-08T07:04:52.522Z,73.60
2022-12-08T07:05:52.502Z,71.00
2022-12-08T07:06:52.452Z,77.00
2022-12-08T07:07:52.479Z,80.40
2022-12-08T07:08:52.371Z,84.40
2022-12-08T07:09:52.356Z,83.30
2022-12-08T07:10:52.333Z,89.70
2022-12-08T07:11:52.272Z,92.90
2022-12-08T07:12:52.233Z,91.80
2022-12-08T07:13:52.209Z,90.30
2022-12-08T07:14:52.154Z,92.90
2022-12-08T07:15:52.132Z,90.60
2022-12-08T07:16:52.150Z,90.60
2022-12-08T07:17:56.273Z,94.20
2022-12-08T07:18:53.003Z,93.10
2022-12-08T07:19:51.974Z,98.00
2022-12-08T07:20:51.934Z,85.50
2022-12-08T07:21:51.901Z,84.40
2022-12-08T07:22:51.855Z,87.60
2022-12-08T07:23:57.325Z,95.80
2022-12-08T07:24:52.774Z,89.40
2022-12-08T07:25:51.728Z,93.20
2022-12-08T07:26:51.703Z,110.00
2022-12-08T07:27:51.772Z,91.90
2022-12-08T07:28:51.640Z,95.30
2022-12-08T07:29:51.574Z,106.00
2022-12-08T07:30:51.601Z,103.40
2022-12-08T07:31:51.523Z,107.00
2022-12-08T07:32:51.469Z,107.10
2022-12-08T07:33:51.436Z,96.20
2022-12-08T07:34:51.405Z,99.40
2022-12-08T07:35:51.366Z,94.60
2022-12-08T07:36:51.316Z,98.40
2022-12-08T07:37:51.276Z,95.40
2022-12-08T07:38:51.245Z,95.50
2022-12-08T07:39:51.199Z,95.40
2022-12-08T07:40:51.228Z,102.10
2022-12-08T07:41:51.128Z,92.80
2022-12-08T07:42:51.089Z,99.70
2022-12-08T07:43:51.036Z,105.00
2022-12-08T07:44:50.998Z,95.60
2022-12-08T07:45:51.139Z,101.50
2022-12-08T07:46:50.929Z,100.80
2022-12-08T07:47:50.888Z,90.50
2022-12-08T07:48:50.848Z,102.50
2022-12-08T07:49:50.806Z,95.40
2022-12-08T07:50:50.772Z,102.30
2022-12-08T07:51:50.747Z,101.80
2022-12-08T07:52:50.723Z,94.20
2022-12-08T07:53:54.274Z,92.60
2022-12-08T07:54:50.632Z,98.60
2022-12-08T07:55:50.592Z,98.70
2022-12-08T07:56:50.562Z,102.40
2022-12-08T07:57:50.479Z,93.90
2022-12-08T07:58:50.492Z,99.90
2022-12-08T07:59:50.409Z,94.80
2022-12-08T08:00:50.428Z,98.10
2022-12-08T08:02:06.547Z,96.10
2022-12-08T08:02:51.380Z,105.50
2022-12-08T08:03:50.250Z,101.60
2022-12-08T08:04:50.317Z,92.20
2022-12-08T08:05:50.149Z,105.80
2022-12-08T08:06:50.120Z,100.00
2022-12-08T08:07:50.128Z,94.30
2022-12-08T08:08:50.034Z,77.50
2022-12-08T08:09:50.012Z,79.10
2022-12-08T08:10:49.949Z,76.90
2022-12-08T08:12:14.473Z,82.80
2022-12-08T08:12:50.872Z,80.40
2022-12-08T08:13:49.844Z,85.20
2022-12-08T08:14:49.813Z,78.10
2022-12-08T08:15:49.847Z,89.10
2022-12-08T08:16:49.808Z,85.40
2022-12-08T08:17:49.674Z,85.80
2022-12-08T08:18:49.654Z,83.40
2022-12-08T08:19:49.589Z,78.40
2022-12-08T08:20:49.563Z,75.00
2022-12-08T08:21:49.501Z,72.90
2022-12-08T08:22:49.474Z,81.20
2022-12-08T08:23:49.428Z,82.90
2022-12-08T08:24:49.396Z,99.00
2022-12-08T08:25:49.367Z,93.40
2022-12-08T08:26:49.314Z,97.70
2022-12-08T08:27:49.272Z,87.00
2022-12-08T08:28:49.226Z,86.60
2022-12-08T08:29:49.174Z,90.40
2022-12-08T08:30:49.213Z,92.10
2022-12-08T08:31:49.099Z,92.40
2022-12-08T08:32:49.063Z,102.90
2022-12-08T08:33:49.005Z,96.30
2022-12-08T08:34:48.961Z,88.20
2022-12-08T08:35:48.926Z,104.80
2022-12-08T08:36:48.933Z,91.80
2022-12-08T08:37:49.519Z,96.30
2022-12-08T08:38:48.839Z,85.10
2022-12-08T08:39:48.747Z,86.40
2022-12-08T08:40:48.739Z,87.40
2022-12-08T08:41:48.688Z,93.90
2022-12-08T08:42:48.627Z,105.40
2022-12-08T08:43:48.578Z,97.80
2022-12-08T08:44:48.548Z,100.30
2022-12-08T08:45:48.491Z,103.20
2022-12-08T08:46:48.518Z,104.50
2022-12-08T08:47:55.414Z,98.60
2022-12-08T08:48:48.364Z,100.00
2022-12-08T08:49:48.321Z,103.40
2022-12-08T08:50:48.282Z,94.30
2022-12-08T08:51:48.260Z,92.80
2022-12-08T08:52:48.216Z,99.20
2022-12-08T08:53:48.172Z,90.50
2022-12-08T08:54:48.166Z,90.50
2022-12-08T08:55:48.084Z,86.70
2022-12-08T08:56:48.071Z,79.00
2022-12-08T08:57:48.008Z,84.10
2022-12-08T08:58:47.955Z,84.70
2022-12-08T08:59:47.925Z,81.90
2022-12-08T09:00:47.895Z,74.60
2022-12-08T09:01:47.926Z,78.00
2022-12-08T09:02:47.829Z,76.70
2022-12-08T09:03:47.754Z,72.40
2022-12-08T09:04:47.768Z,66.90
2022-12-08T09:05:47.741Z,64.70
2022-12-08T09:06:47.633Z,71.10
2022-12-08T09:07:47.653Z,68.20
2022-12-08T09:08:47.530Z,62.70
2022-12-08T09:09:47.485Z,70.70
2022-12-08T09:10:47.461Z,66.70
2022-12-08T09:11:47.427Z,61.30
2022-12-08T09:12:47.386Z,67.00
2022-12-08T09:13:47.318Z,67.70
2022-12-08T09:14:47.277Z,65.00
2022-12-08T09:15:47.267Z,73.60
2022-12-08T09:16:47.248Z,66.60
2022-12-08T09:17:47.156Z,66.50
2022-12-08T09:18:47.110Z,66.10
2022-12-08T09:19:47.068Z,70.20
2022-12-08T09:20:47.031Z,66.60
2022-12-08T09:21:47.004Z,65.40
2022-12-08T09:22:46.961Z,62.80
2022-12-08T09:23:46.890Z,63.10
2022-12-08T09:24:46.872Z,62.60
2022-12-08T09:25:46.812Z,61.20
2022-12-08T09:26:46.779Z,55.10
2022-12-08T09:27:46.743Z,62.60
2022-12-08T09:28:46.869Z,55.70
2022-12-08T09:29:46.642Z,55.30
2022-12-08T09:30:46.629Z,57.90
2022-12-08T09:31:46.648Z,49.50
2022-12-08T09:32:46.511Z,55.10
2022-12-08T09:33:46.485Z,56.60
2022-12-08T09:34:50.439Z,56.00
2022-12-08T09:35:47.382Z,55.30
2022-12-08T09:36:46.368Z,58.40
2022-12-08T09:37:46.302Z,50.20
2022-12-08T09:38:46.287Z,52.30
2022-12-08T09:39:46.256Z,46.30
2022-12-08T09:40:46.186Z,46.90
2022-12-08T09:41:48.339Z,41.40
2022-12-08T09:42:46.092Z,43.80
2022-12-08T09:43:46.054Z,41.40
2022-12-08T09:44:46.013Z,51.60
2022-12-08T09:45:45.942Z,45.90
2022-12-08T09:46:45.956Z,45.80
2022-12-08T09:47:45.852Z,54.40
2022-12-08T09:48:45.819Z,55.50
2022-12-08T09:49:45.770Z,59.30
2022-12-08T09:50:45.743Z,51.70
2022-12-08T09:51:45.645Z,50.40
2022-12-08T09:52:45.596Z,48.00
2022-12-08T09:53:45.541Z,47.50
2022-12-08T09:54:45.506Z,48.30
2022-12-08T09:55:45.474Z,50.30
2022-12-08T09:56:45.397Z,52.80
2022-12-08T09:57:45.344Z,44.00
2022-12-08T09:58:45.324Z,46.80
2022-12-08T09:59:45.258Z,49.30
2022-12-08T10:00:45.251Z,45.90
2022-12-08T10:01:45.203Z,45.10
2022-12-08T10:02:45.128Z,44.70
2022-12-08T10:03:45.070Z,49.20
2022-12-08T10:04:45.106Z,57.70
2022-12-08T10:05:45.000Z,43.30
2022-12-08T10:06:44.928Z,42.50
2022-12-08T10:07:45.020Z,48.00
2022-12-08T10:08:44.838Z,44.60
2022-12-08T10:09:44.791Z,48.60
2022-12-08T10:10:44.738Z,52.90
2022-12-08T10:11:44.695Z,48.90
2022-12-08T10:12:44.656Z,39.90
2022-12-08T10:13:44.598Z,41.60
2022-12-08T10:14:44.552Z,46.70
2022-12-08T10:15:44.616Z,43.00
2022-12-08T10:16:44.516Z,46.60
2022-12-08T10:17:44.441Z,46.10
2022-12-08T10:18:44.419Z,48.80
2022-12-08T10:19:44.339Z,51.10
2022-12-08T10:20:44.293Z,49.00
2022-12-08T10:21:44.269Z,43.80
2022-12-08T10:22:45.112Z,41.60
2022-12-08T10:23:44.160Z,46.20
2022-12-08T10:24:44.115Z,45.10
2022-12-08T10:25:44.091Z,38.00
2022-12-08T10:26:44.044Z,38.00
2022-12-08T10:27:43.992Z,35.80
2022-12-08T10:28:45.517Z,36.30
2022-12-08T10:29:43.894Z,37.10
2022-12-08T10:30:43.837Z,38.80
2022-12-08T10:31:43.867Z,39.80
2022-12-08T10:32:43.793Z,39.10
2022-12-08T10:33:43.683Z,37.90
2022-12-08T10:34:43.649Z,37.90
2022-12-08T10:35:43.586Z,42.70
2022-12-08T10:36:43.575Z,41.20
2022-12-08T10:37:43.482Z,37.30
2022-12-08T10:38:43.453Z,35.10
2022-12-08T10:39:43.394Z,35.10
2022-12-08T10:40:45.737Z,38.10
2022-12-08T10:41:43.328Z,41.50
2022-12-08T10:42:43.263Z,37.50
2022-12-08T10:43:43.224Z,39.50
2022-12-08T10:44:43.172Z,36.50
2022-12-08T10:45:43.114Z,37.70
2022-12-08T10:46:43.180Z,40.00
2022-12-08T10:47:45.331Z,37.00
2022-12-08T10:48:42.992Z,36.80
2022-12-08T10:49:42.924Z,36.70
2022-12-08T10:50:42.887Z,38.50
2022-12-08T10:51:42.845Z,36.60
2022-12-08T10:52:42.815Z,35.80
2022-12-08T10:53:42.777Z,41.30
2022-12-08T10:54:42.693Z,41.40
2022-12-08T10:55:42.643Z,38.80
2022-12-08T10:56:42.606Z,40.70
2022-12-08T10:57:42.586Z,38.90
2022-12-08T10:58:42.496Z,37.80
2022-12-08T10:59:42.460Z,38.70
2022-12-08T11:00:42.581Z,37.90
2022-12-08T11:01:42.529Z,37.40
2022-12-08T11:02:42.418Z,40.00
2022-12-08T11:03:42.257Z,36.90
2022-12-08T11:04:42.219Z,41.10
2022-12-08T11:05:42.175Z,44.40
2022-12-08T11:06:42.097Z,44.50
2022-12-08T11:07:42.097Z,45.40
2022-12-08T11:08:42.037Z,43.40
2022-12-08T11:09:41.977Z,49.30
2022-12-08T11:10:41.929Z,44.60
2022-12-08T11:11:41.888Z,47.90
2022-12-08T11:12:41.846Z,44.50
2022-12-08T11:13:41.798Z,46.20
2022-12-08T11:14:41.774Z,49.30
2022-12-08T11:15:41.713Z,49.00
2022-12-08T11:16:41.823Z,52.00
2022-12-08T11:17:41.607Z,55.30
2022-12-08T11:18:41.647Z,50.80
2022-12-08T11:19:41.537Z,55.90
2022-12-08T11:20:41.479Z,71.90
2022-12-08T11:21:41.439Z,71.90
2022-12-08T11:22:41.399Z,64.60
2022-12-08T11:23:41.354Z,58.30
2022-12-08T11:24:41.294Z,77.50
2022-12-08T11:25:41.261Z,71.60
2022-12-08T11:26:41.222Z,62.40
2022-12-08T11:27:41.162Z,72.50
2022-12-08T11:28:41.158Z,59.40
2022-12-08T11:29:41.130Z,60.70
2022-12-08T11:30:41.051Z,65.30
2022-12-08T11:31:41.092Z,60.40
2022-12-08T11:32:40.952Z,60.60
2022-12-08T11:33:40.944Z,57.70
2022-12-08T11:34:40.863Z,61.50
2022-12-08T11:35:40.812Z,59.30
2022-12-08T11:36:40.747Z,63.50
2022-12-08T11:37:40.714Z,59.80
2022-12-08T11:38:40.659Z,65.10
2022-12-08T11:39:40.602Z,58.10
2022-12-08T11:40:40.547Z,61.70
2022-12-08T11:41:40.506Z,62.20
2022-12-08T11:42:40.464Z,64.60
2022-12-08T11:43:40.421Z,56.40
2022-12-08T11:44:40.393Z,60.30
2022-12-08T11:45:40.394Z,64.70
2022-12-08T11:46:40.268Z,67.70
2022-12-08T11:47:40.223Z,68.20
2022-12-08T11:48:40.179Z,68.10
2022-12-08T11:49:40.153Z,63.80
2022-12-08T11:50:40.085Z,61.10
2022-12-08T11:51:40.045Z,66.40
2022-12-08T11:52:40.036Z,59.60
2022-12-08T11:53:39.942Z,57.60
2022-12-08T11:54:39.896Z,60.50
2022-12-08T11:55:41.725Z,55.80
2022-12-08T11:56:40.807Z,59.40
2022-12-08T11:57:39.809Z,59.30
2022-12-08T11:58:39.716Z,55.20
2022-12-08T11:59:39.669Z,53.00
2022-12-08T12:00:39.656Z,53.10
2022-12-08T12:01:42.515Z,59.50
2022-12-08T12:02:39.541Z,54.60
2022-12-08T12:03:39.523Z,51.40
2022-12-08T12:04:39.427Z,52.90
2022-12-08T12:06:08.789Z,53.50
2022-12-08T12:06:54.098Z,53.40
2022-12-08T12:07:40.350Z,53.70
2022-12-08T12:08:39.226Z,53.80
2022-12-08T12:09:39.228Z,53.80
2022-12-08T12:10:39.189Z,54.80
2022-12-08T12:11:39.097Z,53.70
2022-12-08T12:12:39.845Z,53.30
2022-12-08T12:13:38.988Z,53.40
2022-12-08T12:14:38.952Z,51.20
2022-12-08T12:15:38.898Z,50.00
2022-12-08T12:16:38.909Z,43.50
2022-12-08T12:17:38.810Z,44.20
2022-12-08T12:18:38.758Z,42.50
2022-12-08T12:19:38.708Z,44.20
2022-12-08T12:20:38.690Z,45.00
2022-12-08T12:21:38.671Z,46.80
2022-12-08T12:22:38.597Z,45.00
2022-12-08T12:23:38.530Z,45.20
2022-12-08T12:24:38.480Z,42.50
2022-12-08T12:25:38.420Z,42.70
2022-12-08T12:26:38.360Z,42.30
2022-12-08T12:27:38.339Z,35.30
2022-12-08T12:28:38.275Z,42.20
2022-12-08T12:29:38.196Z,35.80
2022-12-08T12:30:38.230Z,35.10
2022-12-08T12:31:38.112Z,37.70
2022-12-08T12:32:38.062Z,39.10
2022-12-08T12:33:38.002Z,41.70
2022-12-08T12:34:37.951Z,40.40
2022-12-08T12:35:37.899Z,43.20
2022-12-08T12:36:37.839Z,41.60
2022-12-08T12:37:37.799Z,43.10
2022-12-08T12:38:37.731Z,42.20
2022-12-08T12:39:37.669Z,40.10
2022-12-08T12:40:37.623Z,38.10
2022-12-08T12:41:37.572Z,36.10
2022-12-08T12:42:37.523Z,35.30
2022-12-08T12:43:37.463Z,41.80
2022-12-08T12:44:37.434Z,44.10
2022-12-08T12:45:37.355Z,37.30
2022-12-08T12:46:37.362Z,36.50
2022-12-08T12:47:37.275Z,41.50
2022-12-08T12:48:37.270Z,40.50
2022-12-08T12:49:37.169Z,40.90
2022-12-08T12:50:37.121Z,38.80